Time;durP1;ratioP1;P1;durP2;ratioP2;P2;SDS_P1;SDS_P2;PMS_P1;PMS_P2;Temp;Humidity;BMP_temperature;BMP_pressure;BME280_temperature;BME280_humidity;BME280_pressure;Samples;Min_cycle;Max_cycle;Signal;HPM_P1;HPM_P2
2023/09/21 00:02:22;;;;;;;1.50;0.90;;;20.00;98.20;;;;;;4933152;28;20488;-76
2023/09/21 00:04:51;;;;;;;1.47;0.90;;;20.00;98.20;;;;;;4945617;28;20554;-77
2023/09/21 00:07:20;;;;;;;1.47;0.90;;;19.90;98.20;;;;;;4939206;28;20505;-75
2023/09/21 00:09:47;;;;;;;1.47;0.90;;;19.90;98.20;;;;;;4952143;28;20848;-76
2023/09/21 00:12:14;;;;;;;1.50;0.90;;;19.90;98.20;;;;;;4934205;28;20494;-78
2023/09/21 00:14:41;;;;;;;1.50;1.10;;;19.90;98.20;;;;;;4942646;28;20481;-75
2023/09/21 00:17:09;;;;;;;1.50;0.90;;;19.90;98.20;;;;;;4939867;28;20632;-76
2023/09/21 00:22:16;;;;;;;1.50;1.00;;;19.90;98.20;;;;;;4906351;28;20569;-76
2023/09/21 00:24:44;;;;;;;1.47;0.90;;;19.90;98.20;;;;;;4949920;28;20855;-76
2023/09/21 00:27:12;;;;;;;1.40;0.90;;;20.00;98.20;;;;;;4949863;28;21009;-77
2023/09/21 00:29:39;;;;;;;1.47;0.90;;;20.00;98.20;;;;;;4940783;28;20813;-76
2023/09/21 00:32:06;;;;;;;1.43;0.90;;;20.00;98.20;;;;;;4938558;28;20481;-76
2023/09/21 00:34:34;;;;;;;1.43;0.90;;;20.00;98.20;;;;;;4943121;28;20463;-79
2023/09/21 00:37:01;;;;;;;1.50;0.90;;;20.00;98.20;;;;;;4940690;28;20481;-76
2023/09/21 00:39:31;;;;;;;1.47;0.90;;;20.00;98.20;;;;;;4943226;28;21009;-77
2023/09/21 00:42:00;;;;;;;1.80;1.53;;;20.00;98.20;;;;;;4931946;28;20482;-76
2023/09/21 00:44:27;;;;;;;1.50;0.90;;;20.00;98.20;;;;;;4940114;28;20470;-76
2023/09/21 00:46:54;;;;;;;1.50;0.90;;;20.00;98.20;;;;;;4936823;28;21039;-77
2023/09/21 00:49:20;;;;;;;1.50;0.90;;;20.00;98.20;;;;;;4945374;28;20838;-76
2023/09/21 00:51:47;;;;;;;1.47;0.90;;;20.00;98.20;;;;;;4934568;28;20494;-77
2023/09/21 00:54:15;;;;;;;1.47;0.90;;;20.00;98.20;;;;;;4942397;28;20475;-80
2023/09/21 00:56:41;;;;;;;1.47;0.90;;;20.00;98.20;;;;;;4929723;29;20566;-76
2023/09/21 00:59:14;;;;;;;1.50;1.20;;;20.00;98.20;;;;;;4934939;29;20491;-77
2023/09/21 01:01:41;;;;;;;1.50;0.90;;;20.00;98.20;;;;;;4927197;29;20488;-76
2023/09/21 01:04:08;;;;;;;1.50;1.10;;;20.00;98.20;;;;;;4935384;29;20902;-79
2023/09/21 01:06:35;;;;;;;1.47;0.90;;;19.90;98.20;;;;;;4928468;29;20573;-80
2023/09/21 01:09:03;;;;;;;1.97;1.77;;;19.90;98.20;;;;;;4942890;29;20484;-79
2023/09/21 01:11:31;;;;;;;1.47;0.90;;;19.90;98.20;;;;;;4925556;29;20852;-77
2023/09/21 01:13:58;;;;;;;1.50;0.90;;;19.90;98.20;;;;;;4938076;29;20479;-76
2023/09/21 01:16:26;;;;;;;1.43;0.90;;;19.90;98.20;;;;;;4921761;29;20598;-75
2023/09/21 01:18:53;;;;;;;1.50;0.90;;;19.80;98.20;;;;;;4940027;29;21121;-76
2023/09/21 01:21:27;;;;;;;1.50;0.90;;;19.80;98.20;;;;;;4919872;28;20493;-76
2023/09/21 01:23:56;;;;;;;1.47;0.90;;;19.80;98.20;;;;;;4946265;28;21297;-74
2023/09/21 01:26:23;;;;;;;1.43;0.90;;;19.80;98.20;;;;;;4926446;28;20494;-75
2023/09/21 01:28:50;;;;;;;1.47;0.90;;;19.80;98.20;;;;;;4949773;28;20495;-75
2023/09/21 01:31:17;;;;;;;1.50;0.90;;;19.80;98.20;;;;;;4923714;28;20505;-75
2023/09/21 01:33:44;;;;;;;1.43;0.90;;;19.80;98.20;;;;;;4946192;28;20475;-77
2023/09/21 01:36:12;;;;;;;1.47;0.90;;;19.80;98.20;;;;;;4924230;28;20483;-76
2023/09/21 01:38:40;;;;;;;1.40;0.90;;;19.70;98.20;;;;;;4954419;28;20494;-76
2023/09/21 01:41:08;;;;;;;1.47;0.90;;;19.70;98.20;;;;;;4924769;28;20499;-75
2023/09/21 01:43:35;;;;;;;1.50;1.00;;;19.70;98.20;;;;;;4948461;28;20464;-75
2023/09/21 01:46:04;;;;;;;1.47;0.90;;;19.70;98.20;;;;;;4924773;28;20476;-75
2023/09/21 01:48:32;;;;;;;1.43;0.90;;;19.60;98.20;;;;;;4947566;28;20538;-75
2023/09/21 01:50:59;;;;;;;1.47;0.90;;;19.60;98.20;;;;;;4923906;28;20480;-77
2023/09/21 01:53:26;;;;;;;1.50;0.90;;;19.60;98.20;;;;;;4952640;28;20495;-74
2023/09/21 01:55:53;;;;;;;1.50;1.00;;;19.50;98.20;;;;;;4922560;28;20861;-77
2023/09/21 01:58:23;;;;;;;1.50;0.90;;;19.50;98.20;;;;;;4953718;28;20487;-76
2023/09/21 02:00:50;;;;;;;1.47;0.90;;;19.50;98.20;;;;;;4920964;28;20527;-76
2023/09/21 02:03:18;;;;;;;1.50;0.90;;;19.40;98.20;;;;;;4959673;28;20848;-75
2023/09/21 02:05:46;;;;;;;1.50;1.00;;;19.40;98.20;;;;;;4929287;29;20901;-75
2023/09/21 02:08:13;;;;;;;1.47;0.90;;;19.40;98.20;;;;;;4915511;28;20529;-76
2023/09/21 02:10:41;;;;;;;1.50;0.90;;;19.30;98.20;;;;;;4949825;28;20475;-74
2023/09/21 02:13:08;;;;;;;1.47;0.90;;;19.30;98.20;;;;;;4953211;28;20861;-76
2023/09/21 02:15:38;;;;;;;1.47;0.90;;;19.30;98.20;;;;;;4950895;28;20474;-75
2023/09/21 02:18:06;;;;;;;1.50;0.90;;;19.30;98.20;;;;;;4951855;28;20486;-75
2023/09/21 02:20:34;;;;;;;1.47;0.90;;;19.30;98.20;;;;;;4949300;28;20782;-74
2023/09/21 02:23:02;;;;;;;1.47;0.90;;;19.30;98.20;;;;;;4932734;28;20483;-76
2023/09/21 02:25:31;;;;;;;1.47;0.90;;;19.40;98.20;;;;;;4950571;28;20459;-75
2023/09/21 02:27:58;;;;;;;1.47;0.90;;;19.40;98.20;;;;;;4951090;28;20482;-76
2023/09/21 02:30:26;;;;;;;1.50;0.90;;;19.30;98.20;;;;;;4949001;28;20579;-76
2023/09/21 02:32:55;;;;;;;1.50;0.90;;;19.30;98.20;;;;;;4967962;23;20498;-78
2023/09/21 02:35:25;;;;;;;1.43;0.90;;;19.30;98.20;;;;;;4960207;28;20539;-79
2023/09/21 02:37:53;;;;;;;1.50;0.90;;;19.30;98.20;;;;;;4942605;28;20474;-79
2023/09/21 02:40:23;;;;;;;1.50;0.90;;;19.20;98.20;;;;;;4959748;28;20477;-78
2023/09/21 02:42:51;;;;;;;1.50;0.90;;;19.20;98.20;;;;;;4929549;28;20488;-80
2023/09/21 02:45:19;;;;;;;1.50;0.90;;;19.20;98.20;;;;;;4941060;29;20474;-79
2023/09/21 02:47:48;;;;;;;1.47;0.90;;;19.20;98.20;;;;;;4933714;29;20493;-80
2023/09/21 02:50:22;;;;;;;1.47;1.00;;;19.20;98.20;;;;;;4942151;29;20805;-79
2023/09/21 02:52:51;;;;;;;1.47;0.90;;;19.10;98.20;;;;;;4940084;29;20569;-78
2023/09/21 02:55:20;;;;;;;1.50;0.90;;;19.10;98.20;;;;;;4940420;29;20520;-79
2023/09/21 02:57:49;;;;;;;1.47;0.90;;;19.10;98.20;;;;;;4939466;29;20854;-79
2023/09/21 03:00:26;;;;;;;1.93;1.83;;;19.10;98.20;;;;;;4939805;29;21305;-79
2023/09/21 03:02:55;;;;;;;1.47;0.93;;;19.10;98.20;;;;;;4945526;28;20494;-79
2023/09/21 03:05:25;;;;;;;1.50;0.93;;;19.10;98.20;;;;;;4941067;29;20459;-79
2023/09/21 03:07:52;;;;;;;1.50;1.00;;;19.10;98.20;;;;;;4941787;29;20482;-79
2023/09/21 03:10:19;;;;;;;1.50;0.90;;;19.10;98.20;;;;;;4935352;29;20460;-80
2023/09/21 03:12:49;;;;;;;1.47;0.90;;;19.10;98.20;;;;;;4932597;28;20483;-79
2023/09/21 03:15:18;;;;;;;1.50;1.00;;;19.00;98.20;;;;;;4934454;29;20475;-78
2023/09/21 03:17:45;;;;;;;1.47;1.00;;;19.00;98.20;;;;;;4945309;29;20474;-79
2023/09/21 03:20:14;;;;;;;1.50;1.10;;;19.00;98.20;;;;;;4940042;29;20543;-79
2023/09/21 03:22:42;;;;;;;1.50;1.00;;;19.00;98.20;;;;;;4931694;29;21115;-79
2023/09/21 03:25:16;;;;;;;1.50;1.00;;;19.00;98.20;;;;;;4940550;29;21055;-78
2023/09/21 03:27:43;;;;;;;2.43;2.23;;;19.00;98.20;;;;;;4939665;29;20486;-78
2023/09/21 03:30:11;;;;;;;1.43;0.90;;;19.00;98.20;;;;;;4942235;29;20991;-80
2023/09/21 03:32:40;;;;;;;1.43;0.90;;;19.00;98.20;;;;;;4931792;29;20515;-77
2023/09/21 03:35:10;;;;;;;1.47;1.00;;;19.00;98.20;;;;;;4942203;29;20472;-80
2023/09/21 03:37:38;;;;;;;1.47;0.90;;;19.00;98.20;;;;;;4938474;29;20492;-78
2023/09/21 03:40:08;;;;;;;1.47;0.90;;;19.00;98.20;;;;;;4945749;29;20556;-78
2023/09/21 03:42:36;;;;;;;1.47;0.90;;;19.10;98.20;;;;;;4933433;29;20519;-79
2023/09/21 03:45:03;;;;;;;1.50;0.90;;;19.10;98.20;;;;;;4945045;29;20900;-80
2023/09/21 03:47:30;;;;;;;1.47;0.90;;;19.10;98.20;;;;;;4939396;29;20554;-78
2023/09/21 03:49:58;;;;;;;1.50;1.00;;;19.10;98.20;;;;;;4941285;29;20463;-79
2023/09/21 03:52:25;;;;;;;1.43;0.90;;;19.10;98.20;;;;;;4927953;29;21019;-80
2023/09/21 03:54:55;;;;;;;1.47;0.90;;;19.10;98.20;;;;;;4943310;29;20850;-79
2023/09/21 03:57:23;;;;;;;1.47;0.90;;;19.10;98.20;;;;;;4940954;29;20470;-79
2023/09/21 03:59:50;;;;;;;1.50;1.13;;;19.10;98.20;;;;;;4940633;29;20634;-79
2023/09/21 04:02:19;;;;;;;1.47;1.00;;;19.10;98.20;;;;;;4937734;28;20499;-80
2023/09/21 04:04:50;;;;;;;1.50;0.90;;;19.00;98.20;;;;;;4940808;29;20464;-81
2023/09/21 04:07:17;;;;;;;1.47;0.90;;;19.10;98.20;;;;;;4933405;29;20775;-79
2023/09/21 04:09:45;;;;;;;1.50;0.90;;;19.00;98.20;;;;;;4940631;29;20554;-80
2023/09/21 04:12:13;;;;;;;1.50;0.93;;;19.00;98.20;;;;;;4932895;28;20488;-79
2023/09/21 04:14:46;;;;;;;1.47;0.90;;;19.00;98.20;;;;;;4941739;29;20468;-82
2023/09/21 04:17:13;;;;;;;1.47;0.90;;;19.00;98.20;;;;;;4931863;29;20480;-78
2023/09/21 04:19:40;;;;;;;1.50;0.90;;;19.00;98.20;;;;;;4944515;29;20624;-80
2023/09/21 04:22:07;;;;;;;1.60;1.37;;;19.00;98.20;;;;;;4931365;29;20640;-82
2023/09/21 04:24:34;;;;;;;1.43;0.90;;;19.00;98.20;;;;;;4941791;29;20467;-81
2023/09/21 04:27:03;;;;;;;1.50;1.00;;;19.10;98.20;;;;;;4934698;29;20574;-80
2023/09/21 04:29:30;;;;;;;1.50;0.90;;;19.10;98.20;;;;;;4945699;29;20816;-82
2023/09/21 04:31:59;;;;;;;1.43;0.90;;;19.10;98.20;;;;;;4922856;29;20494;-80
2023/09/21 04:34:26;;;;;;;1.50;1.00;;;19.10;98.20;;;;;;4937527;29;20558;-78
2023/09/21 04:36:53;;;;;;;1.43;0.90;;;19.10;98.20;;;;;;4928156;29;20786;-79
2023/09/21 04:39:20;;;;;;;1.40;0.90;;;19.10;98.20;;;;;;4944365;28;20547;-79
2023/09/21 04:41:47;;;;;;;1.43;0.90;;;19.10;98.20;;;;;;4936089;28;20837;-77
2023/09/21 04:44:14;;;;;;;1.43;0.90;;;19.10;98.20;;;;;;4943253;29;20734;-80
2023/09/21 04:46:42;;;;;;;1.43;0.90;;;19.10;98.20;;;;;;4933439;29;20636;-79
2023/09/21 04:49:10;;;;;;;1.43;0.90;;;19.10;98.20;;;;;;4939340;29;20492;-82
2023/09/21 04:51:39;;;;;;;1.40;0.90;;;19.10;98.20;;;;;;4927878;28;20482;-79
2023/09/21 04:54:08;;;;;;;1.43;0.90;;;19.00;98.20;;;;;;4947993;29;20567;-77
2023/09/21 04:56:36;;;;;;;1.47;0.90;;;19.00;98.20;;;;;;4935382;29;20559;-79
2023/09/21 04:59:05;;;;;;;1.50;0.90;;;19.00;98.20;;;;;;4945474;29;20511;-77
2023/09/21 05:01:32;;;;;;;1.50;1.10;;;19.00;98.20;;;;;;4932278;29;21128;-78
2023/09/21 05:03:59;;;;;;;1.50;0.90;;;19.00;98.20;;;;;;4946554;29;20501;-77
2023/09/21 05:06:27;;;;;;;1.47;0.90;;;18.90;98.20;;;;;;4938103;29;20479;-77
2023/09/21 05:08:54;;;;;;;1.50;0.97;;;19.00;98.20;;;;;;4946558;29;20535;-77
2023/09/21 05:11:21;;;;;;;1.43;0.90;;;18.90;98.20;;;;;;4931930;29;20495;-78
2023/09/21 05:13:50;;;;;;;1.43;1.00;;;19.00;98.20;;;;;;4942604;29;20490;-78
2023/09/21 05:16:18;;;;;;;1.50;0.97;;;19.00;98.20;;;;;;4932784;29;20514;-79
2023/09/21 05:18:47;;;;;;;1.47;0.90;;;19.00;98.20;;;;;;4945371;29;20476;-79
2023/09/21 05:21:14;;;;;;;1.50;0.90;;;19.00;98.20;;;;;;4932842;29;20780;-79
2023/09/21 05:23:45;;;;;;;1.50;1.00;;;19.00;98.20;;;;;;4950599;29;20479;-78
2023/09/21 05:26:12;;;;;;;1.47;0.90;;;19.10;98.20;;;;;;4929901;29;20791;-78
2023/09/21 05:28:38;;;;;;;1.47;0.90;;;19.10;98.20;;;;;;4948378;29;20471;-79
2023/09/21 05:31:05;;;;;;;1.50;0.90;;;19.10;98.20;;;;;;4929165;29;20468;-78
2023/09/21 05:33:32;;;;;;;1.43;0.90;;;19.20;98.20;;;;;;4942229;29;20495;-78
2023/09/21 05:36:04;;;;;;;1.47;0.90;;;19.20;98.20;;;;;;4928824;29;20970;-79
2023/09/21 05:38:32;;;;;;;1.43;0.90;;;19.20;98.20;;;;;;4946382;29;20842;-78
2023/09/21 05:41:00;;;;;;;1.40;0.90;;;19.20;98.20;;;;;;4925454;29;20576;-79
2023/09/21 05:43:28;;;;;;;1.43;0.90;;;19.20;98.20;;;;;;4942249;29;20488;-78
2023/09/21 05:45:55;;;;;;;1.50;1.20;;;19.20;98.20;;;;;;4929653;29;20464;-79
2023/09/21 05:48:22;;;;;;;1.50;0.90;;;19.20;98.20;;;;;;4942726;29;20723;-79
2023/09/21 05:50:49;;;;;;;1.43;0.90;;;19.20;98.20;;;;;;4930973;29;20474;-79
2023/09/21 05:53:16;;;;;;;1.47;0.90;;;19.20;98.20;;;;;;4942331;29;20599;-78
2023/09/21 05:55:43;;;;;;;1.47;0.90;;;19.20;98.20;;;;;;4939804;29;20476;-77
2023/09/21 05:58:12;;;;;;;1.47;0.90;;;19.20;98.20;;;;;;4934233;29;20482;-78
2023/09/21 06:03:27;;;;;;;1.50;0.90;;;19.20;98.20;;;;;;5209251;23;20497;-77
2023/09/21 06:05:54;;;;;;;1.47;0.90;;;19.20;98.20;;;;;;4969801;28;20558;-78
2023/09/21 06:08:23;;;;;;;1.50;0.97;;;19.30;98.20;;;;;;4990874;28;20474;-78
2023/09/21 06:10:50;;;;;;;1.43;0.90;;;19.30;98.20;;;;;;4969955;28;20464;-78
2023/09/21 06:13:18;;;;;;;1.47;0.90;;;19.30;98.20;;;;;;4978360;28;20511;-77
2023/09/21 06:15:46;;;;;;;1.50;0.90;;;19.30;98.20;;;;;;4960729;28;20844;-77
2023/09/21 06:18:14;;;;;;;1.50;1.00;;;19.40;98.20;;;;;;4948755;28;20483;-78
2023/09/21 06:20:42;;;;;;;1.47;0.90;;;19.50;98.20;;;;;;4964199;28;20482;-77
2023/09/21 06:23:09;;;;;;;1.50;0.90;;;19.60;98.20;;;;;;4968429;28;20500;-78
2023/09/21 06:25:37;;;;;;;1.47;0.90;;;19.70;98.20;;;;;;4962098;28;20494;-77
2023/09/21 06:28:04;;;;;;;1.47;0.90;;;19.80;98.20;;;;;;4962382;28;20500;-77
2023/09/21 06:30:33;;;;;;;1.50;0.90;;;20.00;98.20;;;;;;4958948;28;20478;-77
2023/09/21 06:33:00;;;;;;;1.50;0.90;;;20.10;98.20;;;;;;4957768;28;20482;-77
2023/09/21 06:35:27;;;;;;;1.50;0.90;;;20.20;98.20;;;;;;4958473;28;20473;-77
2023/09/21 06:37:54;;;;;;;1.50;0.90;;;20.30;98.20;;;;;;4969434;28;20913;-80
2023/09/21 06:40:22;;;;;;;1.50;1.20;;;20.40;98.20;;;;;;4965977;28;20831;-78
2023/09/21 06:42:48;;;;;;;1.43;0.90;;;20.40;98.20;;;;;;4969881;28;20550;-79
2023/09/21 06:45:15;;;;;;;1.47;0.90;;;20.40;98.20;;;;;;4962279;28;20471;-79
2023/09/21 06:47:43;;;;;;;1.47;0.90;;;20.30;98.20;;;;;;4965774;28;20482;-78
2023/09/21 06:50:11;;;;;;;1.50;1.10;;;20.30;98.20;;;;;;4963137;28;20481;-78
2023/09/21 06:52:39;;;;;;;1.47;0.90;;;20.20;98.20;;;;;;4962098;28;20485;-78
2023/09/21 06:55:06;;;;;;;1.50;0.90;;;20.20;98.20;;;;;;4961839;28;20538;-78
2023/09/21 06:57:34;;;;;;;1.43;0.87;;;20.20;98.20;;;;;;4963590;28;20486;-78
2023/09/21 07:00:01;;;;;;;1.47;0.90;;;20.20;98.20;;;;;;4958618;28;20491;-78
2023/09/21 07:02:28;;;;;;;1.43;0.90;;;20.20;98.20;;;;;;4958755;28;20501;-77
2023/09/21 07:04:56;;;;;;;1.47;0.90;;;20.20;98.20;;;;;;4961521;28;20569;-78
2023/09/21 07:07:23;;;;;;;1.47;0.90;;;20.20;98.20;;;;;;4960863;28;20492;-79
2023/09/21 07:09:50;;;;;;;1.47;0.90;;;20.20;98.20;;;;;;4963521;28;20562;-78
2023/09/21 07:12:17;;;;;;;1.47;0.90;;;20.30;98.20;;;;;;4956633;28;20560;-78
2023/09/21 07:14:45;;;;;;;1.47;0.90;;;20.40;98.20;;;;;;4961658;28;20992;-78
2023/09/21 07:17:12;;;;;;;1.50;0.90;;;20.50;98.20;;;;;;4958611;28;20618;-78
2023/09/21 07:19:40;;;;;;;1.50;0.90;;;20.60;98.20;;;;;;4968147;28;20504;-78
2023/09/21 07:22:08;;;;;;;1.50;1.23;;;20.70;98.20;;;;;;4963700;28;20521;-78
2023/09/21 07:24:36;;;;;;;1.47;0.90;;;20.70;98.20;;;;;;4967378;28;20940;-78
2023/09/21 07:27:03;;;;;;;1.40;0.90;;;20.70;98.20;;;;;;4959962;28;20478;-78
2023/09/21 07:29:31;;;;;;;2.13;1.93;;;20.80;98.20;;;;;;4968846;28;20468;-78
2023/09/21 07:31:59;;;;;;;1.43;0.90;;;20.80;98.20;;;;;;4955802;28;20505;-78
2023/09/21 07:34:25;;;;;;;1.47;0.90;;;20.90;98.20;;;;;;4971497;28;20481;-78
2023/09/21 07:36:52;;;;;;;1.47;0.83;;;21.00;98.20;;;;;;4957504;28;20909;-78
2023/09/21 07:39:21;;;;;;;1.47;0.90;;;21.20;98.20;;;;;;4972305;28;20550;-79
2023/09/21 07:41:49;;;;;;;1.47;0.90;;;21.30;98.20;;;;;;4959618;28;20482;-79
2023/09/21 07:44:18;;;;;;;1.47;0.90;;;21.50;98.20;;;;;;4970945;28;20491;-78
2023/09/21 07:46:45;;;;;;;1.50;0.90;;;21.70;98.20;;;;;;4957503;28;20486;-78
2023/09/21 07:49:13;;;;;;;1.50;0.90;;;21.80;98.20;;;;;;4967256;28;20550;-77
2023/09/21 07:51:40;;;;;;;1.50;0.90;;;21.90;98.20;;;;;;4950722;28;20478;-78
2023/09/21 07:54:07;;;;;;;1.43;0.90;;;22.00;98.20;;;;;;4962147;28;20469;-78
2023/09/21 07:56:36;;;;;;;1.47;0.80;;;22.20;98.20;;;;;;4957644;28;20503;-80
2023/09/21 07:59:04;;;;;;;1.50;0.90;;;22.30;98.20;;;;;;4968148;28;20471;-78
2023/09/21 08:01:31;;;;;;;1.50;1.00;;;22.40;98.20;;;;;;4958212;28;21077;-78
2023/09/21 08:03:58;;;;;;;1.50;0.90;;;22.60;98.20;;;;;;4964044;28;20506;-77
2023/09/21 08:06:27;;;;;;;1.50;0.90;;;22.80;98.20;;;;;;4949846;28;20483;-80
2023/09/21 08:08:54;;;;;;;1.50;1.00;;;22.90;97.70;;;;;;4969069;28;20557;-79
2023/09/21 08:11:21;;;;;;;1.43;0.90;;;22.90;98.20;;;;;;4949886;28;20637;-77
2023/09/21 08:13:50;;;;;;;1.43;0.87;;;23.00;98.00;;;;;;4968308;28;20926;-80
2023/09/21 08:16:18;;;;;;;1.40;0.90;;;23.10;97.70;;;;;;4954057;28;20488;-77
2023/09/21 08:18:47;;;;;;;1.50;0.90;;;23.10;97.70;;;;;;4970815;28;20463;-77
2023/09/21 08:21:14;;;;;;;1.47;0.90;;;23.10;97.80;;;;;;4952721;28;20485;-78
2023/09/21 08:23:42;;;;;;;1.50;0.90;;;23.20;97.60;;;;;;4970528;28;20825;-76
2023/09/21 08:26:13;;;;;;;1.47;0.90;;;23.40;97.50;;;;;;4949387;28;20477;-77
2023/09/21 08:28:40;;;;;;;1.43;0.90;;;23.50;97.30;;;;;;4968059;28;20913;-77
2023/09/21 08:31:09;;;;;;;1.47;0.90;;;23.60;96.90;;;;;;4948606;28;20475;-76
2023/09/21 08:33:36;;;;;;;1.43;0.87;;;23.70;96.30;;;;;;4961042;28;20595;-78
2023/09/21 08:36:03;;;;;;;1.43;0.90;;;23.80;96.60;;;;;;4946643;28;20467;-76
2023/09/21 08:38:30;;;;;;;1.47;0.90;;;23.90;96.10;;;;;;4966320;28;20509;-77
2023/09/21 08:41:02;;;;;;;1.47;0.90;;;24.00;95.70;;;;;;4948157;28;20483;-79
2023/09/21 08:43:30;;;;;;;1.43;0.90;;;24.10;95.90;;;;;;4966688;28;20552;-77
2023/09/21 08:45:58;;;;;;;1.43;0.83;;;24.20;95.80;;;;;;4947140;28;20471;-77
2023/09/21 08:48:27;;;;;;;1.47;0.90;;;24.20;95.00;;;;;;4971402;28;20475;-77
2023/09/21 08:50:55;;;;;;;1.40;0.90;;;24.40;95.20;;;;;;4946694;28;20466;-79
2023/09/21 08:53:23;;;;;;;1.47;0.80;;;24.40;94.10;;;;;;4971220;28;20553;-79
2023/09/21 08:55:52;;;;;;;1.47;0.90;;;24.40;94.10;;;;;;4951079;28;20463;-78
2023/09/21 08:58:23;;;;;;;1.43;0.80;;;24.30;94.70;;;;;;4975288;28;20882;-77
2023/09/21 09:00:52;;;;;;;1.47;0.90;;;24.30;94.40;;;;;;4951410;28;20490;-77
2023/09/21 09:03:21;;;;;;;1.47;0.83;;;24.30;95.10;;;;;;4968433;28;20490;-77
2023/09/21 09:05:49;;;;;;;1.47;0.80;;;24.30;94.90;;;;;;4949533;28;20463;-76
2023/09/21 09:08:16;;;;;;;1.50;0.90;;;24.20;95.00;;;;;;4966582;28;20479;-76
2023/09/21 09:10:44;;;;;;;1.47;0.80;;;24.20;95.00;;;;;;4954085;28;20506;-76
2023/09/21 09:13:10;;;;;;;1.50;0.87;;;24.10;96.00;;;;;;4959084;28;20583;-77
2023/09/21 09:15:38;;;;;;;1.50;0.90;;;24.10;95.60;;;;;;4955572;28;20468;-77
2023/09/21 09:18:07;;;;;;;1.50;1.00;;;24.10;96.00;;;;;;4958394;28;20470;-80
2023/09/21 09:20:36;;;;;;;1.47;0.90;;;24.00;95.80;;;;;;4960388;28;20564;-79
2023/09/21 09:23:09;;;;;;;1.43;0.83;;;23.80;95.80;;;;;;4963269;28;20556;-78
2023/09/21 09:25:37;;;;;;;1.47;0.87;;;23.80;96.60;;;;;;4964210;28;20486;-78
2023/09/21 09:28:05;;;;;;;1.40;0.80;;;23.80;96.80;;;;;;4968078;28;20482;-79
2023/09/21 09:30:32;;;;;;;1.47;0.90;;;23.90;97.40;;;;;;4957895;28;20663;-79
2023/09/21 09:33:00;;;;;;;1.47;0.87;;;24.00;96.70;;;;;;4961762;28;20496;-80
2023/09/21 09:35:28;;;;;;;1.43;0.90;;;24.10;96.60;;;;;;4958113;28;20812;-78
2023/09/21 09:37:56;;;;;;;1.50;0.90;;;24.20;96.20;;;;;;4958290;28;20498;-76
2023/09/21 09:40:25;;;;;;;1.43;0.80;;;24.30;96.10;;;;;;4957465;28;20577;-78
2023/09/21 09:42:52;;;;;;;1.47;0.90;;;24.20;96.10;;;;;;4961158;28;20517;-77
2023/09/21 09:45:24;;;;;;;1.43;0.90;;;24.20;96.60;;;;;;4956063;28;20467;-77
2023/09/21 09:47:56;;;;;;;1.43;0.90;;;24.20;97.00;;;;;;4961054;28;20512;-78
2023/09/21 09:50:24;;;;;;;1.47;0.80;;;24.30;96.30;;;;;;4957159;28;20466;-80
2023/09/21 09:52:56;;;;;;;1.47;0.90;;;24.40;96.00;;;;;;4962747;28;21062;-76
2023/09/21 09:55:25;;;;;;;1.47;0.90;;;24.40;96.00;;;;;;4955221;28;20558;-78
2023/09/21 09:57:54;;;;;;;1.47;0.90;;;24.40;95.40;;;;;;4960815;28;20500;-78
2023/09/21 10:00:22;;;;;;;1.50;0.80;;;24.40;95.80;;;;;;4954865;28;20463;-77
2023/09/21 10:02:50;;;;;;;1.50;0.90;;;24.40;95.50;;;;;;4961237;28;20501;-78
2023/09/21 10:05:20;;;;;;;1.47;0.80;;;24.30;95.10;;;;;;4954167;28;20541;-78
2023/09/21 10:07:51;;;;;;;1.47;0.80;;;24.40;95.60;;;;;;4961666;28;20485;-78
2023/09/21 10:10:20;;;;;;;1.47;0.90;;;24.40;95.50;;;;;;4954512;28;20654;-78
2023/09/21 10:12:51;;;;;;;1.47;0.90;;;24.50;95.50;;;;;;4958333;28;20591;-78
2023/09/21 10:15:18;;;;;;;1.43;0.90;;;24.50;95.30;;;;;;4952002;28;20463;-78
2023/09/21 10:17:48;;;;;;;1.47;0.90;;;24.50;95.10;;;;;;4958054;28;20513;-78
2023/09/21 10:20:27;;;;;;;1.47;0.80;;;24.40;95.20;;;;;;4952893;28;20478;-78
2023/09/21 10:22:55;;;;;;;1.47;0.90;;;24.40;95.10;;;;;;4968025;28;20819;-77
2023/09/21 10:25:37;;;;;;;1.50;0.80;;;24.10;95.20;;;;;;4952367;28;20816;-77
2023/09/21 10:28:34;;;;;;;1.47;0.90;;;24.10;96.10;;;;;;4959119;28;20473;-77
2023/09/21 10:31:22;;;;;;;1.47;0.90;;;24.00;96.40;;;;;;4946094;28;20506;-77
2023/09/21 10:34:06;;;;;;;1.47;0.80;;;24.10;96.50;;;;;;4966142;28;20513;-78
2023/09/21 10:36:33;;;;;;;1.50;0.90;;;23.90;96.20;;;;;;4950511;28;20486;-78
2023/09/21 10:39:24;;;;;;;1.43;0.90;;;23.90;96.30;;;;;;4965792;28;20466;-78
2023/09/21 10:41:52;;;;;;;1.47;0.80;;;24.00;96.50;;;;;;4948990;28;21008;-77
2023/09/21 10:44:52;;;;;;;1.43;0.80;;;24.00;97.00;;;;;;4960586;28;20977;-77
2023/09/21 10:47:29;;;;;;;1.47;0.90;;;24.00;96.10;;;;;;4956099;28;20477;-78
2023/09/21 10:49:58;;;;;;;1.43;0.90;;;24.00;96.30;;;;;;4958515;28;20467;-78
2023/09/21 10:52:28;;;;;;;1.47;0.90;;;23.90;96.60;;;;;;4955115;28;20521;-78
2023/09/21 10:54:55;;;;;;;1.50;0.83;;;23.80;96.60;;;;;;4959850;28;20477;-79
2023/09/21 10:57:24;;;;;;;1.43;0.80;;;23.80;96.90;;;;;;4956300;28;20492;-76
2023/09/21 10:59:52;;;;;;;1.50;0.90;;;23.70;96.60;;;;;;4952699;28;20482;-77
2023/09/21 11:02:21;;;;;;;1.50;0.90;;;23.60;96.90;;;;;;4951973;28;21347;-76
2023/09/21 11:04:49;;;;;;;1.50;0.80;;;23.50;97.20;;;;;;4953978;28;20470;-78
2023/09/21 11:07:17;;;;;;;1.47;0.80;;;23.50;97.20;;;;;;4957363;28;20486;-79
2023/09/21 11:09:45;;;;;;;1.50;0.90;;;23.50;97.40;;;;;;4960286;28;20475;-78
2023/09/21 11:12:13;;;;;;;1.43;0.90;;;23.50;97.20;;;;;;4953696;28;20997;-76
2023/09/21 11:14:43;;;;;;;1.43;0.80;;;23.50;97.20;;;;;;4953512;28;20534;-77
2023/09/21 11:17:11;;;;;;;1.47;0.90;;;23.50;97.10;;;;;;4952593;28;20482;-78
2023/09/21 11:19:39;;;;;;;1.47;0.90;;;23.50;97.30;;;;;;4959620;28;20896;-79
2023/09/21 11:22:08;;;;;;;1.43;0.90;;;23.50;97.50;;;;;;4952689;28;20866;-77
2023/09/21 11:24:39;;;;;;;1.47;0.90;;;23.50;97.80;;;;;;4954414;28;20488;-78
2023/09/21 11:27:09;;;;;;;1.47;0.90;;;23.50;97.50;;;;;;4953475;28;20486;-76
2023/09/21 11:29:36;;;;;;;1.43;0.90;;;23.50;97.80;;;;;;4954943;28;20490;-77
2023/09/21 11:32:05;;;;;;;1.50;0.90;;;23.50;97.70;;;;;;4951261;28;20477;-77
2023/09/21 11:34:40;;;;;;;1.50;0.90;;;23.50;97.70;;;;;;4954237;28;20466;-78
2023/09/21 11:37:11;;;;;;;1.43;0.90;;;23.50;97.80;;;;;;4953718;28;20607;-78
2023/09/21 11:39:39;;;;;;;1.50;0.90;;;23.50;97.40;;;;;;4961378;28;20529;-78
2023/09/21 11:42:08;;;;;;;1.43;0.90;;;23.50;97.80;;;;;;4957087;28;20580;-78
2023/09/21 11:44:37;;;;;;;1.43;0.90;;;23.50;98.10;;;;;;4957956;28;20486;-77
2023/09/21 11:47:09;;;;;;;1.50;0.90;;;23.50;97.70;;;;;;4957295;28;20579;-78
2023/09/21 11:49:37;;;;;;;1.43;0.90;;;23.50;97.90;;;;;;4962863;28;20453;-78
2023/09/21 11:52:04;;;;;;;1.47;0.90;;;23.50;97.80;;;;;;4954139;28;20936;-80
2023/09/21 11:54:35;;;;;;;1.43;0.80;;;23.50;97.60;;;;;;4956221;28;20482;-80
2023/09/21 11:57:03;;;;;;;1.50;1.10;;;23.60;97.50;;;;;;4948686;28;20504;-79
2023/09/21 11:59:32;;;;;;;1.47;0.90;;;23.60;97.80;;;;;;4957184;28;20953;-78
2023/09/21 12:02:00;;;;;;;1.43;0.80;;;23.60;97.60;;;;;;4950309;28;20490;-77
2023/09/21 12:04:28;;;;;;;2.27;2.07;;;23.60;97.90;;;;;;4957212;28;20478;-79
2023/09/21 12:06:56;;;;;;;1.43;0.90;;;23.60;98.10;;;;;;4953150;28;20609;-79
2023/09/21 12:09:23;;;;;;;1.43;0.90;;;23.60;98.20;;;;;;4955712;28;20498;-76
2023/09/21 12:11:54;;;;;;;1.47;0.90;;;23.60;97.80;;;;;;4948496;28;20525;-77
2023/09/21 12:14:22;;;;;;;1.47;0.90;;;23.50;97.90;;;;;;4958788;28;20503;-77
2023/09/21 12:16:50;;;;;;;1.43;0.90;;;23.60;98.20;;;;;;4948902;28;20854;-77
2023/09/21 12:19:18;;;;;;;1.43;0.90;;;23.60;98.10;;;;;;4958338;28;20554;-78
2023/09/21 12:21:47;;;;;;;1.47;0.80;;;23.60;97.60;;;;;;4950303;28;20560;-79
2023/09/21 12:24:14;;;;;;;1.43;0.90;;;23.60;97.90;;;;;;4960976;28;20467;-78
2023/09/21 12:26:42;;;;;;;1.43;0.90;;;23.50;98.20;;;;;;4952935;28;20489;-79
2023/09/21 12:29:11;;;;;;;1.47;0.80;;;23.50;98.20;;;;;;4958312;28;20475;-75
2023/09/21 12:31:38;;;;;;;1.47;0.90;;;23.50;98.20;;;;;;4948420;28;20476;-80
2023/09/21 12:34:06;;;;;;;1.43;0.90;;;23.50;98.20;;;;;;4960704;28;20832;-76
2023/09/21 12:36:34;;;;;;;1.47;0.80;;;23.40;98.20;;;;;;4947773;28;20962;-77
2023/09/21 12:39:01;;;;;;;1.47;0.90;;;23.40;98.20;;;;;;4958609;28;20555;-77
2023/09/21 12:41:29;;;;;;;1.43;0.90;;;23.40;98.20;;;;;;4950312;28;20481;-77
2023/09/21 12:43:57;;;;;;;1.50;0.90;;;23.40;98.20;;;;;;4960491;28;20466;-77
2023/09/21 12:46:27;;;;;;;1.43;0.90;;;23.40;98.20;;;;;;4945423;28;20932;-78
2023/09/21 12:48:54;;;;;;;1.47;0.87;;;23.30;98.20;;;;;;4961841;28;20477;-78
2023/09/21 12:51:21;;;;;;;1.43;0.90;;;23.30;98.20;;;;;;4943728;28;20847;-80
2023/09/21 12:53:48;;;;;;;1.43;0.80;;;23.40;98.20;;;;;;4961444;28;20862;-80
2023/09/21 12:56:15;;;;;;;1.43;0.90;;;23.40;98.20;;;;;;4944598;28;20485;-78
2023/09/21 12:58:43;;;;;;;1.43;0.87;;;23.50;98.20;;;;;;4961733;28;20609;-77
2023/09/21 13:01:10;;;;;;;1.50;0.90;;;23.50;98.20;;;;;;4946125;28;20477;-80